CheckWX is a tool to help pilots better visualize weather data.  It is not intended as a substitute for an official pre-flight weather briefing.

20:13:36 UTC

EBAW TAF
Antwerp International (Deurne) Airport
Antwerp, Belgium
TAF EBAW 261702Z 2618/2703 02010KT CAVOK

Jun-26@
18:00 UTC

Jun-26 @ 18:00 UTC

Jun-27@
03:00 UTC

Jun-27 @ 03:00 UTC

TAF EBAW 261702Z 2618/2703 02010KT CAVOK
Wind
  • 020° at 10 KTS
Conditions
No significant weather
Cloud Levels
  • No significant clouds